sensor_id;sensor_type;location;lat;lon;timestamp;pressure;altitude;pressure_sealevel;temperature;humidity
77725;BME280;66892;53.236;6.550;2023-03-24T00:00:20;99788.22;;;10.65;95.83
77725;BME280;66892;53.236;6.550;2023-03-24T00:02:47;99784.69;;;10.65;95.68
77725;BME280;66892;53.236;6.550;2023-03-24T00:05:15;99784.78;;;10.60;95.84
77725;BME280;66892;53.236;6.550;2023-03-24T00:07:41;99780.47;;;10.56;96.86
77725;BME280;66892;53.236;6.550;2023-03-24T00:10:11;99776.97;;;10.55;96.45
77725;BME280;66892;53.236;6.550;2023-03-24T00:12:38;99776.84;;;10.60;95.98
77725;BME280;66892;53.236;6.550;2023-03-24T00:15:06;99772.50;;;10.57;96.62
77725;BME280;66892;53.236;6.550;2023-03-24T00:17:34;99767.28;;;10.54;96.91
77725;BME280;66892;53.236;6.550;2023-03-24T00:20:02;99766.34;;;10.57;96.59
77725;BME280;66892;53.236;6.550;2023-03-24T00:22:32;99759.25;;;10.59;96.33
77725;BME280;66892;53.236;6.550;2023-03-24T00:24:59;99753.94;;;10.61;96.19
77725;BME280;66892;53.236;6.550;2023-03-24T00:27:25;99748.63;;;10.62;96.09
77725;BME280;66892;53.236;6.550;2023-03-24T00:29:55;99737.25;;;10.57;96.39
77725;BME280;66892;53.236;6.550;2023-03-24T00:32:23;99730.31;;;10.53;97.36
77725;BME280;66892;53.236;6.550;2023-03-24T00:34:51;99723.16;;;10.56;96.87
77725;BME280;66892;53.236;6.550;2023-03-24T00:37:19;99723.09;;;10.61;96.05
77725;BME280;66892;53.236;6.550;2023-03-24T00:39:45;99723.09;;;10.61;96.14
77725;BME280;66892;53.236;6.550;2023-03-24T00:42:11;99722.19;;;10.62;96.55
77725;BME280;66892;53.236;6.550;2023-03-24T00:44:38;99713.44;;;10.58;96.41
77725;BME280;66892;53.236;6.550;2023-03-24T00:47:04;99706.34;;;10.61;96.46
77725;BME280;66892;53.236;6.550;2023-03-24T00:49:30;99708.19;;;10.57;96.66
77725;BME280;66892;53.236;6.550;2023-03-24T00:52:15;99702.06;;;10.55;97.31
77725;BME280;66892;53.236;6.550;2023-03-24T00:54:45;99698.56;;;10.54;97.14
77725;BME280;66892;53.236;6.550;2023-03-24T00:57:13;99694.09;;;10.56;97.41
77725;BME280;66892;53.236;6.550;2023-03-24T00:59:40;99689.75;;;10.54;97.25
77725;BME280;66892;53.236;6.550;2023-03-24T01:02:13;99679.16;;;10.55;97.61
77725;BME280;66892;53.236;6.550;2023-03-24T01:04:41;99671.28;;;10.52;97.70
77725;BME280;66892;53.236;6.550;2023-03-24T01:07:13;99665.16;;;10.50;97.63
77725;BME280;66892;53.236;6.550;2023-03-24T01:09:44;99656.25;;;10.54;97.68
77725;BME280;66892;53.236;6.550;2023-03-24T01:12:17;99655.38;;;10.54;98.05
77725;BME280;66892;53.236;6.550;2023-03-24T01:14:44;99647.50;;;10.52;97.62
77725;BME280;66892;53.236;6.550;2023-03-24T01:17:10;99649.22;;;10.55;97.53
77725;BME280;66892;53.236;6.550;2023-03-24T01:19:36;99640.31;;;10.57;97.81
77725;BME280;66892;53.236;6.550;2023-03-24T01:22:02;99637.75;;;10.56;97.50
77725;BME280;66892;53.236;6.550;2023-03-24T01:24:29;99617.50;;;10.53;98.00
77725;BME280;66892;53.236;6.550;2023-03-24T01:26:55;99633.28;;;10.56;97.71
77725;BME280;66892;53.236;6.550;2023-03-24T01:29:22;99613.81;;;10.61;97.62
77725;BME280;66892;53.236;6.550;2023-03-24T01:31:48;99613.91;;;10.57;97.68
77725;BME280;66892;53.236;6.550;2023-03-24T01:34:14;99603.38;;;10.56;97.80
77725;BME280;66892;53.236;6.550;2023-03-24T01:36:40;99595.38;;;10.57;97.47
77725;BME280;66892;53.236;6.550;2023-03-24T01:39:06;99597.13;;;10.58;97.27
77725;BME280;66892;53.236;6.550;2023-03-24T01:41:36;99590.91;;;10.61;97.53
77725;BME280;66892;53.236;6.550;2023-03-24T01:44:24;99595.31;;;10.61;97.26
77725;BME280;66892;53.236;6.550;2023-03-24T01:46:51;99580.41;;;10.58;97.17
77725;BME280;66892;53.236;6.550;2023-03-24T01:49:17;99578.63;;;10.58;97.71
77725;BME280;66892;53.236;6.550;2023-03-24T01:51:44;99568.88;;;10.62;97.51
77725;BME280;66892;53.236;6.550;2023-03-24T01:54:15;99569.75;;;10.63;97.54
77725;BME280;66892;53.236;6.550;2023-03-24T01:56:48;99569.78;;;10.59;97.66
77725;BME280;66892;53.236;6.550;2023-03-24T01:59:18;99569.84;;;10.58;97.93
77725;BME280;66892;53.236;6.550;2023-03-24T02:01:45;99550.44;;;10.59;98.11
77725;BME280;66892;53.236;6.550;2023-03-24T02:04:12;99546.88;;;10.60;98.45
77725;BME280;66892;53.236;6.550;2023-03-24T02:06:40;99545.88;;;10.64;98.21
77725;BME280;66892;53.236;6.550;2023-03-24T02:09:10;99548.53;;;10.64;97.56
77725;BME280;66892;53.236;6.550;2023-03-24T02:11:37;99537.00;;;10.67;98.13
77725;BME280;66892;53.236;6.550;2023-03-24T02:14:06;99524.81;;;10.63;97.98
77725;BME280;66892;53.236;6.550;2023-03-24T02:16:48;99513.28;;;10.65;98.34
77725;BME280;66892;53.236;6.550;2023-03-24T02:19:41;99510.56;;;10.67;98.21
77725;BME280;66892;53.236;6.550;2023-03-24T02:22:35;99503.59;;;10.64;98.58
77725;BME280;66892;53.236;6.550;2023-03-24T02:28:21;99495.66;;;10.64;98.69
77725;BME280;66892;53.236;6.550;2023-03-24T02:31:11;99488.53;;;10.68;98.50
77725;BME280;66892;53.236;6.550;2023-03-24T02:40:18;99483.97;;;10.73;98.51
77725;BME280;66892;53.236;6.550;2023-03-24T02:42:56;99476.03;;;10.74;98.65
77725;BME280;66892;53.236;6.550;2023-03-24T02:45:33;99477.84;;;10.72;98.62
77725;BME280;66892;53.236;6.550;2023-03-24T02:50:50;99483.13;;;10.72;98.11
77725;BME280;66892;53.236;6.550;2023-03-24T02:53:22;99472.56;;;10.72;98.50
77725;BME280;66892;53.236;6.550;2023-03-24T02:55:56;99463.59;;;10.78;98.42
77725;BME280;66892;53.236;6.550;2023-03-24T02:58:30;99466.25;;;10.76;98.49
77725;BME280;66892;53.236;6.550;2023-03-24T03:01:04;99453.03;;;10.76;98.25
77725;BME280;66892;53.236;6.550;2023-03-24T03:03:35;99469.63;;;10.83;98.37
77725;BME280;66892;53.236;6.550;2023-03-24T03:06:08;99463.44;;;10.84;98.35
77725;BME280;66892;53.236;6.550;2023-03-24T03:08:39;99465.25;;;10.82;97.97
77725;BME280;66892;53.236;6.550;2023-03-24T03:11:12;99454.53;;;10.86;98.28
77725;BME280;66892;53.236;6.550;2023-03-24T03:13:42;99465.91;;;10.90;98.26
77725;BME280;66892;53.236;6.550;2023-03-24T03:16:13;99457.16;;;10.88;98.30
77725;BME280;66892;53.236;6.550;2023-03-24T03:18:43;99450.84;;;10.92;98.18
77725;BME280;66892;53.236;6.550;2023-03-24T03:21:12;99449.88;;;10.96;97.64
77725;BME280;66892;53.236;6.550;2023-03-24T03:23:42;99463.19;;;10.93;97.93
77725;BME280;66892;53.236;6.550;2023-03-24T03:26:14;99454.19;;;10.98;97.15
77725;BME280;66892;53.236;6.550;2023-03-24T03:28:47;99466.44;;;11.02;97.33
77725;BME280;66892;53.236;6.550;2023-03-24T03:31:18;99489.34;;;11.03;97.58
77725;BME280;66892;53.236;6.550;2023-03-24T03:33:51;99519.31;;;11.04;97.65
77725;BME280;66892;53.236;6.550;2023-03-24T03:36:22;99513.28;;;10.99;98.04
77725;BME280;66892;53.236;6.550;2023-03-24T03:38:54;99517.94;;;10.89;95.83
77725;BME280;66892;53.236;6.550;2023-03-24T03:41:25;99519.13;;;10.78;94.22
77725;BME280;66892;53.236;6.550;2023-03-24T03:43:51;99528.22;;;10.66;93.62
77725;BME280;66892;53.236;6.550;2023-03-24T03:46:18;99528.59;;;10.51;95.02
77725;BME280;66892;53.236;6.550;2023-03-24T03:48:44;99539.22;;;10.49;93.94
77725;BME280;66892;53.236;6.550;2023-03-24T03:51:11;99537.63;;;10.41;94.42
77725;BME280;66892;53.236;6.550;2023-03-24T03:53:42;99550.03;;;10.37;94.65
77725;BME280;66892;53.236;6.550;2023-03-24T03:56:09;99558.03;;;10.34;94.13
77725;BME280;66892;53.236;6.550;2023-03-24T03:58:37;99576.69;;;10.28;94.49
77725;BME280;66892;53.236;6.550;2023-03-24T04:01:05;99582.09;;;10.22;93.68
77725;BME280;66892;53.236;6.550;2023-03-24T04:03:46;99586.63;;;10.17;93.72
77725;BME280;66892;53.236;6.550;2023-03-24T04:06:22;99598.13;;;10.13;93.64
77725;BME280;66892;53.236;6.550;2023-03-24T04:08:56;99599.84;;;10.16;92.27
77725;BME280;66892;53.236;6.550;2023-03-24T04:11:48;99611.47;;;10.07;92.90
77725;BME280;66892;53.236;6.550;2023-03-24T04:14:32;99622.25;;;9.96;92.76
77725;BME280;66892;53.236;6.550;2023-03-24T04:17:07;99605.66;;;9.90;91.87
77725;BME280;66892;53.236;6.550;2023-03-24T04:19:47;99624.19;;;9.88;90.38
77725;BME280;66892;53.236;6.550;2023-03-24T04:22:26;99621.59;;;9.85;90.48
77725;BME280;66892;53.236;6.550;2023-03-24T04:25:03;99634.88;;;9.81;90.25
77725;BME280;66892;53.236;6.550;2023-03-24T04:27:38;99635.13;;;9.69;90.07
77725;BME280;66892;53.236;6.550;2023-03-24T04:30:13;99631.84;;;9.54;91.58
77725;BME280;66892;53.236;6.550;2023-03-24T04:32:45;99652.31;;;9.43;91.07
77725;BME280;66892;53.236;6.550;2023-03-24T04:35:20;99654.09;;;9.41;90.67
77725;BME280;66892;53.236;6.550;2023-03-24T04:37:58;99656.00;;;9.33;90.74
77725;BME280;66892;53.236;6.550;2023-03-24T04:40:27;99666.72;;;9.24;91.35
77725;BME280;66892;53.236;6.550;2023-03-24T04:42:58;99677.38;;;9.15;91.62
77725;BME280;66892;53.236;6.550;2023-03-24T04:45:27;99684.41;;;9.18;90.49
77725;BME280;66892;53.236;6.550;2023-03-24T04:48:00;99684.53;;;9.09;91.71
77725;BME280;66892;53.236;6.550;2023-03-24T04:50:29;99701.34;;;9.02;91.53
77725;BME280;66892;53.236;6.550;2023-03-24T04:52:56;99696.97;;;9.02;91.19
77725;BME280;66892;53.236;6.550;2023-03-24T04:55:35;99705.75;;;9.01;90.82
77725;BME280;66892;53.236;6.550;2023-03-24T04:58:04;99699.66;;;8.96;91.37
77725;BME280;66892;53.236;6.550;2023-03-24T05:00:32;99707.72;;;8.88;91.30
77725;BME280;66892;53.236;6.550;2023-03-24T05:02:58;99710.44;;;8.82;91.48
77725;BME280;66892;53.236;6.550;2023-03-24T05:05:24;99699.03;;;8.80;91.35
77725;BME280;66892;53.236;6.550;2023-03-24T05:07:50;99712.16;;;8.83;91.34
77725;BME280;66892;53.236;6.550;2023-03-24T05:10:17;99699.97;;;8.76;91.95
77725;BME280;66892;53.236;6.550;2023-03-24T05:12:44;99708.81;;;8.72;92.24
77725;BME280;66892;53.236;6.550;2023-03-24T05:15:10;99702.53;;;8.81;91.35
77725;BME280;66892;53.236;6.550;2023-03-24T05:17:37;99714.09;;;8.72;91.87
77725;BME280;66892;53.236;6.550;2023-03-24T05:20:05;99720.25;;;8.71;92.36
77725;BME280;66892;53.236;6.550;2023-03-24T05:22:35;99722.78;;;8.77;92.28
77725;BME280;66892;53.236;6.550;2023-03-24T05:25:01;99737.72;;;8.77;92.26
77725;BME280;66892;53.236;6.550;2023-03-24T05:27:27;99730.78;;;8.73;92.96
77725;BME280;66892;53.236;6.550;2023-03-24T05:29:53;99736.00;;;8.76;92.63
77725;BME280;66892;53.236;6.550;2023-03-24T05:32:19;99743.91;;;8.76;92.67
77725;BME280;66892;53.236;6.550;2023-03-24T05:34:47;99745.53;;;8.84;92.21
77725;BME280;66892;53.236;6.550;2023-03-24T05:37:13;99750.81;;;8.86;92.73
77725;BME280;66892;53.236;6.550;2023-03-24T05:39:41;99754.25;;;8.89;92.58
77725;BME280;66892;53.236;6.550;2023-03-24T05:42:07;99755.13;;;8.91;92.82
77725;BME280;66892;53.236;6.550;2023-03-24T05:44:34;99756.88;;;8.91;92.43
77725;BME280;66892;53.236;6.550;2023-03-24T05:47:00;99763.91;;;8.90;92.58
77725;BME280;66892;53.236;6.550;2023-03-24T05:49:26;99759.41;;;8.98;91.27
77725;BME280;66892;53.236;6.550;2023-03-24T05:51:53;99774.41;;;8.95;92.27
77725;BME280;66892;53.236;6.550;2023-03-24T05:54:20;99772.50;;;9.05;91.77
77725;BME280;66892;53.236;6.550;2023-03-24T05:56:47;99778.63;;;9.07;91.85
77725;BME280;66892;53.236;6.550;2023-03-24T05:59:13;99783.91;;;9.07;91.01
77725;BME280;66892;53.236;6.550;2023-03-24T06:01:40;99781.22;;;9.10;91.41
77725;BME280;66892;53.236;6.550;2023-03-24T06:04:09;99790.78;;;9.15;90.43
77725;BME280;66892;53.236;6.550;2023-03-24T06:06:35;99795.22;;;9.13;90.59
77725;BME280;66892;53.236;6.550;2023-03-24T06:09:04;99802.31;;;9.10;90.03
77725;BME280;66892;53.236;6.550;2023-03-24T06:11:30;99807.53;;;9.13;90.21
77725;BME280;66892;53.236;6.550;2023-03-24T06:13:56;99803.19;;;9.12;89.85
77725;BME280;66892;53.236;6.550;2023-03-24T06:16:25;99807.53;;;9.13;89.82
77725;BME280;66892;53.236;6.550;2023-03-24T06:18:51;99807.53;;;9.13;89.34
77725;BME280;66892;53.236;6.550;2023-03-24T06:21:18;99810.25;;;9.07;90.74
77725;BME280;66892;53.236;6.550;2023-03-24T06:23:44;99809.38;;;9.06;91.02
77725;BME280;66892;53.236;6.550;2023-03-24T06:26:12;99811.09;;;9.09;90.07
77725;BME280;66892;53.236;6.550;2023-03-24T06:28:39;99835.66;;;9.14;90.44
77725;BME280;66892;53.236;6.550;2023-03-24T06:31:07;99829.47;;;9.18;89.37
77725;BME280;66892;53.236;6.550;2023-03-24T06:33:43;99823.34;;;9.14;90.01
77725;BME280;66892;53.236;6.550;2023-03-24T06:36:10;99832.16;;;9.15;90.67
77725;BME280;66892;53.236;6.550;2023-03-24T06:38:37;99834.78;;;9.15;89.81
77725;BME280;66892;53.236;6.550;2023-03-24T06:41:04;99834.75;;;9.16;90.10
77725;BME280;66892;53.236;6.550;2023-03-24T06:43:32;99849.69;;;9.16;89.25
77725;BME280;66892;53.236;6.550;2023-03-24T06:45:58;99836.47;;;9.19;90.20
77725;BME280;66892;53.236;6.550;2023-03-24T06:48:25;99845.19;;;9.24;89.33
77725;BME280;66892;53.236;6.550;2023-03-24T06:50:51;99858.34;;;9.25;88.99
77725;BME280;66892;53.236;6.550;2023-03-24T06:53:17;99863.63;;;9.25;88.98
77725;BME280;66892;53.236;6.550;2023-03-24T06:55:43;99865.44;;;9.23;89.56
77725;BME280;66892;53.236;6.550;2023-03-24T06:58:10;99863.66;;;9.24;88.40
77725;BME280;66892;53.236;6.550;2023-03-24T07:00:37;99872.47;;;9.23;88.80
77725;BME280;66892;53.236;6.550;2023-03-24T07:03:03;99862.78;;;9.23;89.03
77725;BME280;66892;53.236;6.550;2023-03-24T07:05:30;99866.25;;;9.27;88.70
77725;BME280;66892;53.236;6.550;2023-03-24T07:07:57;99868.91;;;9.27;88.54
77725;BME280;66892;53.236;6.550;2023-03-24T07:10:22;99874.19;;;9.27;88.87
77725;BME280;66892;53.236;6.550;2023-03-24T07:12:48;99866.25;;;9.27;87.97
77725;BME280;66892;53.236;6.550;2023-03-24T07:15:15;99884.69;;;9.30;88.42
77725;BME280;66892;53.236;6.550;2023-03-24T07:17:43;99886.34;;;9.35;88.93
77725;BME280;66892;53.236;6.550;2023-03-24T07:20:09;99888.06;;;9.39;87.89
77725;BME280;66892;53.236;6.550;2023-03-24T07:22:35;99899.50;;;9.38;88.05
77725;BME280;66892;53.236;6.550;2023-03-24T07:25:02;99892.50;;;9.36;88.86
77725;BME280;66892;53.236;6.550;2023-03-24T07:27:29;99898.63;;;9.39;87.51
77725;BME280;66892;53.236;6.550;2023-03-24T07:29:57;99900.34;;;9.43;87.07
77725;BME280;66892;53.236;6.550;2023-03-24T07:32:23;99909.03;;;9.48;86.65
77725;BME280;66892;53.236;6.550;2023-03-24T07:34:51;99916.09;;;9.48;87.05
77725;BME280;66892;53.236;6.550;2023-03-24T07:37:17;99916.03;;;9.52;86.20
77725;BME280;66892;53.236;6.550;2023-03-24T07:39:43;99919.50;;;9.56;85.93
77725;BME280;66892;53.236;6.550;2023-03-24T07:42:09;99917.75;;;9.53;86.37
77725;BME280;66892;53.236;6.550;2023-03-24T07:44:35;99934.47;;;9.54;85.93
77725;BME280;66892;53.236;6.550;2023-03-24T07:47:01;99933.53;;;9.58;84.98
77725;BME280;66892;53.236;6.550;2023-03-24T07:49:27;99929.09;;;9.62;86.31
77725;BME280;66892;53.236;6.550;2023-03-24T07:51:55;99930.84;;;9.63;85.41
77725;BME280;66892;53.236;6.550;2023-03-24T07:54:21;99943.13;;;9.65;86.58
77725;BME280;66892;53.236;6.550;2023-03-24T07:56:47;99939.53;;;9.71;85.39
77725;BME280;66892;53.236;6.550;2023-03-24T07:59:13;99941.16;;;9.81;84.81
77725;BME280;66892;53.236;6.550;2023-03-24T08:01:39;99940.94;;;9.93;84.73
77725;BME280;66892;53.236;6.550;2023-03-24T08:04:05;99948.09;;;9.88;84.05
77725;BME280;66892;53.236;6.550;2023-03-24T08:06:31;99948.03;;;9.89;83.98
77725;BME280;66892;53.236;6.550;2023-03-24T08:08:58;99948.78;;;10.00;84.06
77725;BME280;66892;53.236;6.550;2023-03-24T08:11:24;99952.16;;;10.08;82.68
77725;BME280;66892;53.236;6.550;2023-03-24T08:13:51;99961.81;;;10.11;83.51
77725;BME280;66892;53.236;6.550;2023-03-24T08:16:17;99958.25;;;10.12;83.21
77725;BME280;66892;53.236;6.550;2023-03-24T08:18:43;99967.81;;;10.24;82.59
77725;BME280;66892;53.236;6.550;2023-03-24T08:21:09;99970.38;;;10.28;82.41
77725;BME280;66892;53.236;6.550;2023-03-24T08:23:35;99975.59;;;10.31;80.41
77725;BME280;66892;53.236;6.550;2023-03-24T08:26:03;99978.19;;;10.36;80.53
77725;BME280;66892;53.236;6.550;2023-03-24T08:28:29;99979.91;;;10.38;79.44
77725;BME280;66892;53.236;6.550;2023-03-24T08:30:55;99976.47;;;10.32;79.68
77725;BME280;66892;53.236;6.550;2023-03-24T08:33:21;99992.31;;;10.33;79.97
77725;BME280;66892;53.236;6.550;2023-03-24T08:35:47;99980.50;;;10.54;78.77
77725;BME280;66892;53.236;6.550;2023-03-24T08:38:13;99989.09;;;11.16;75.38
77725;BME280;66892;53.236;6.550;2023-03-24T08:40:41;99982.22;;;11.05;76.93
77725;BME280;66892;53.236;6.550;2023-03-24T08:43:12;100004.03;;;10.69;76.44
77725;BME280;66892;53.236;6.550;2023-03-24T08:45:39;99997.84;;;10.72;78.16
77725;BME280;66892;53.236;6.550;2023-03-24T08:48:07;99994.56;;;11.49;75.25
77725;BME280;66892;53.236;6.550;2023-03-24T08:50:35;100005.69;;;11.68;74.54
77725;BME280;66892;53.236;6.550;2023-03-24T08:53:02;99978.53;;;11.58;72.35
77725;BME280;66892;53.236;6.550;2023-03-24T08:55:28;100009.81;;;11.38;74.57
77725;BME280;66892;53.236;6.550;2023-03-24T08:57:54;100013.53;;;11.74;71.74
77725;BME280;66892;53.236;6.550;2023-03-24T09:00:22;100020.78;;;12.43;70.72
77725;BME280;66892;53.236;6.550;2023-03-24T09:02:50;100022.38;;;11.73;71.67
77725;BME280;66892;53.236;6.550;2023-03-24T09:05:17;100016.81;;;11.41;72.18
77725;BME280;66892;53.236;6.550;2023-03-24T09:07:47;100020.88;;;11.14;74.01
77725;BME280;66892;53.236;6.550;2023-03-24T09:10:14;100012.47;;;11.38;73.57
77725;BME280;66892;53.236;6.550;2023-03-24T09:12:41;100013.16;;;12.29;70.05
77725;BME280;66892;53.236;6.550;2023-03-24T09:15:10;100023.09;;;12.58;69.20
77725;BME280;66892;53.236;6.550;2023-03-24T09:17:39;100021.22;;;12.95;67.17
77725;BME280;66892;53.236;6.550;2023-03-24T09:20:06;100025.16;;;13.16;67.62
77725;BME280;66892;53.236;6.550;2023-03-24T09:22:36;100035.63;;;12.50;68.69
77725;BME280;66892;53.236;6.550;2023-03-24T09:25:03;100037.91;;;11.90;70.67
77725;BME280;66892;53.236;6.550;2023-03-24T09:27:29;100031.88;;;11.39;69.99
77725;BME280;66892;53.236;6.550;2023-03-24T09:29:55;100034.38;;;11.00;71.75
77725;BME280;66892;53.236;6.550;2023-03-24T09:32:21;100047.06;;;10.80;71.74
77725;BME280;66892;53.236;6.550;2023-03-24T09:34:49;100049.22;;;11.07;72.27
77725;BME280;66892;53.236;6.550;2023-03-24T09:37:15;100049.03;;;12.07;68.26
77725;BME280;66892;53.236;6.550;2023-03-24T09:39:41;100042.84;;;12.80;66.02
77725;BME280;66892;53.236;6.550;2023-03-24T09:42:15;100054.84;;;11.83;66.70
77725;BME280;66892;53.236;6.550;2023-03-24T09:44:43;100049.72;;;11.28;67.24
77725;BME280;66892;53.236;6.550;2023-03-24T09:47:15;100061.81;;;10.92;69.29
77725;BME280;66892;53.236;6.550;2023-03-24T09:49:47;100060.06;;;10.92;70.51
77725;BME280;66892;53.236;6.550;2023-03-24T09:52:22;100065.56;;;10.82;70.37
77725;BME280;66892;53.236;6.550;2023-03-24T09:54:53;100068.25;;;10.79;71.21
77725;BME280;66892;53.236;6.550;2023-03-24T09:57:22;100062.81;;;10.86;71.28
77725;BME280;66892;53.236;6.550;2023-03-24T09:59:50;100077.59;;;10.99;71.61
77725;BME280;66892;53.236;6.550;2023-03-24T10:02:18;100066.00;;;11.05;70.44
77725;BME280;66892;53.236;6.550;2023-03-24T10:04:45;100065.00;;;11.12;70.02
77725;BME280;66892;53.236;6.550;2023-03-24T10:07:18;100069.47;;;11.10;69.03
77725;BME280;66892;53.236;6.550;2023-03-24T10:09:52;100083.41;;;11.18;69.34
77725;BME280;66892;53.236;6.550;2023-03-24T10:12:27;100075.63;;;11.10;67.44
77725;BME280;66892;53.236;6.550;2023-03-24T10:15:09;100089.69;;;11.14;67.81
77725;BME280;66892;53.236;6.550;2023-03-24T10:17:44;100086.19;;;11.12;66.57
77725;BME280;66892;53.236;6.550;2023-03-24T10:20:24;100083.94;;;11.38;65.62
77725;BME280;66892;53.236;6.550;2023-03-24T10:22:58;100083.94;;;11.38;66.30
77725;BME280;66892;53.236;6.550;2023-03-24T10:25:41;100091.81;;;11.41;64.10
77725;BME280;66892;53.236;6.550;2023-03-24T10:28:15;100093.34;;;11.54;64.17
77725;BME280;66892;53.236;6.550;2023-03-24T10:30:44;100083.13;;;11.81;63.98
77725;BME280;66892;53.236;6.550;2023-03-24T10:33:12;100089.25;;;11.84;64.19
77725;BME280;66892;53.236;6.550;2023-03-24T10:35:40;100086.44;;;11.92;65.25
77725;BME280;66892;53.236;6.550;2023-03-24T10:38:14;100095.19;;;11.95;65.28
77725;BME280;66892;53.236;6.550;2023-03-24T10:40:41;100098.75;;;12.36;65.14
77725;BME280;66892;53.236;6.550;2023-03-24T10:43:08;100111.47;;;12.58;62.28
77725;BME280;66892;53.236;6.550;2023-03-24T10:45:37;100104.69;;;12.82;61.20
77725;BME280;66892;53.236;6.550;2023-03-24T10:48:06;100104.75;;;12.81;61.10
77725;BME280;66892;53.236;6.550;2023-03-24T10:50:34;100098.94;;;13.00;61.44
77725;BME280;66892;53.236;6.550;2023-03-24T10:53:07;100112.47;;;13.27;60.10
77725;BME280;66892;53.236;6.550;2023-03-24T10:55:37;100104.22;;;13.69;57.88
77725;BME280;66892;53.236;6.550;2023-03-24T10:58:05;100114.75;;;13.74;57.46
77725;BME280;66892;53.236;6.550;2023-03-24T11:00:38;100116.69;;;12.98;58.01
77725;BME280;66892;53.236;6.550;2023-03-24T11:03:09;100113.19;;;12.61;60.62
77725;BME280;66892;53.236;6.550;2023-03-24T11:05:38;100108.06;;;12.13;59.76
77725;BME280;66892;53.236;6.550;2023-03-24T11:08:22;100120.75;;;13.14;58.68
77725;BME280;66892;53.236;6.550;2023-03-24T11:10:53;100122.97;;;12.94;58.65
77725;BME280;66892;53.236;6.550;2023-03-24T11:13:27;100121.09;;;12.99;58.42
77725;BME280;66892;53.236;6.550;2023-03-24T11:15:55;100127.97;;;12.71;59.42
77725;BME280;66892;53.236;6.550;2023-03-24T11:18:22;100126.59;;;13.29;55.89
77725;BME280;66892;53.236;6.550;2023-03-24T11:20:52;100128.44;;;12.51;58.68
77725;BME280;66892;53.236;6.550;2023-03-24T11:23:26;100116.03;;;13.26;57.22
77725;BME280;66892;53.236;6.550;2023-03-24T11:26:05;100143.16;;;15.17;51.15
77725;BME280;66892;53.236;6.550;2023-03-24T11:28:36;100119.84;;;15.99;47.97
77725;BME280;66892;53.236;6.550;2023-03-24T11:31:05;100126.22;;;16.88;46.64
77725;BME280;66892;53.236;6.550;2023-03-24T11:33:35;100126.59;;;16.79;47.19
77725;BME280;66892;53.236;6.550;2023-03-24T11:39:20;100132.34;;;15.74;44.64
77725;BME280;66892;53.236;6.550;2023-03-24T11:42:04;100119.81;;;16.70;43.05
77725;BME280;66892;53.236;6.550;2023-03-24T11:44:41;100134.28;;;17.08;42.90
77725;BME280;66892;53.236;6.550;2023-03-24T11:47:09;100138.75;;;16.18;44.60
77725;BME280;66892;53.236;6.550;2023-03-24T11:49:41;100127.25;;;14.89;48.59
77725;BME280;66892;53.236;6.550;2023-03-24T11:52:13;100126.06;;;15.24;47.13
77725;BME280;66892;53.236;6.550;2023-03-24T11:54:42;100136.03;;;14.63;48.21
77725;BME280;66892;53.236;6.550;2023-03-24T11:57:11;100139.16;;;15.82;46.67
77725;BME280;66892;53.236;6.550;2023-03-24T11:59:41;100134.38;;;16.15;43.40
77725;BME280;66892;53.236;6.550;2023-03-24T12:02:17;100134.53;;;16.59;42.60
77725;BME280;66892;53.236;6.550;2023-03-24T12:05:12;100139.53;;;16.66;42.43
77725;BME280;66892;53.236;6.550;2023-03-24T12:08:00;100125.28;;;16.67;42.72
77725;BME280;66892;53.236;6.550;2023-03-24T12:10:39;100129.06;;;18.08;40.81
77725;BME280;66892;53.236;6.550;2023-03-24T12:13:11;100126.41;;;17.69;40.14
77725;BME280;66892;53.236;6.550;2023-03-24T12:15:47;100128.56;;;18.38;39.49
77725;BME280;66892;53.236;6.550;2023-03-24T12:21:09;100126.94;;;18.34;39.60
77725;BME280;66892;53.236;6.550;2023-03-24T12:23:47;100123.44;;;18.53;37.42
77725;BME280;66892;53.236;6.550;2023-03-24T12:26:20;100124.88;;;18.97;38.44
77725;BME280;66892;53.236;6.550;2023-03-24T12:28:57;100117.13;;;17.96;39.87
77725;BME280;66892;53.236;6.550;2023-03-24T12:31:47;100124.38;;;15.48;46.44
77725;BME280;66892;53.236;6.550;2023-03-24T12:37:20;100126.88;;;13.83;52.21
77725;BME280;66892;53.236;6.550;2023-03-24T12:39:56;100127.88;;;14.40;52.85
77725;BME280;66892;53.236;6.550;2023-03-24T12:42:32;100112.75;;;14.11;54.82
77725;BME280;66892;53.236;6.550;2023-03-24T12:45:19;100107.28;;;15.02;51.04
77725;BME280;66892;53.236;6.550;2023-03-24T12:48:05;100119.63;;;14.49;53.52
77725;BME280;66892;53.236;6.550;2023-03-24T12:50:46;100117.34;;;15.45;51.40
77725;BME280;66892;53.236;6.550;2023-03-24T12:53:21;100108.34;;;14.97;52.79
77725;BME280;66892;53.236;6.550;2023-03-24T12:55:53;100123.78;;;14.58;53.28
77725;BME280;66892;53.236;6.550;2023-03-24T12:58:36;100115.09;;;15.07;53.86
77725;BME280;66892;53.236;6.550;2023-03-24T13:01:09;100107.44;;;14.11;55.51
77725;BME280;66892;53.236;6.550;2023-03-24T13:03:40;100132.63;;;14.00;57.53
77725;BME280;66892;53.236;6.550;2023-03-24T13:06:16;100120.69;;;13.82;57.23
77725;BME280;66892;53.236;6.550;2023-03-24T13:08:54;100110.72;;;14.78;54.36
77725;BME280;66892;53.236;6.550;2023-03-24T13:11:34;100114.66;;;14.66;53.31
77725;BME280;66892;53.236;6.550;2023-03-24T13:14:03;100103.88;;;14.12;50.97
77725;BME280;66892;53.236;6.550;2023-03-24T13:16:33;100106.97;;;15.11;47.89
77725;BME280;66892;53.236;6.550;2023-03-24T13:19:01;100111.25;;;14.89;48.45
77725;BME280;66892;53.236;6.550;2023-03-24T13:21:28;100115.63;;;14.92;46.82
77725;BME280;66892;53.236;6.550;2023-03-24T13:23:58;100118.69;;;15.32;46.96
77725;BME280;66892;53.236;6.550;2023-03-24T13:26:36;100100.56;;;14.63;49.46
77725;BME280;66892;53.236;6.550;2023-03-24T13:29:13;100106.84;;;14.31;47.28
77725;BME280;66892;53.236;6.550;2023-03-24T13:31:49;100109.34;;;15.71;43.75
77725;BME280;66892;53.236;6.550;2023-03-24T13:34:23;100109.13;;;15.53;43.66
77725;BME280;66892;53.236;6.550;2023-03-24T13:36:52;100112.88;;;16.20;42.82